createdAt,value
2023-05-08T04:59:01.552Z,6.78
2023-05-08T05:01:31.105Z,6.81
2023-05-08T05:03:59.374Z,6.57
2023-05-08T05:06:27.652Z,6.55
2023-05-08T05:08:55.664Z,6.57
2023-05-08T05:11:24.046Z,6.96
2023-05-08T05:13:52.187Z,7.15
2023-05-08T05:16:21.654Z,7.06
2023-05-08T05:18:49.758Z,6.99
2023-05-08T05:21:17.900Z,6.99
2023-05-08T05:23:46.562Z,6.84
2023-05-08T05:26:14.558Z,6.90
2023-05-08T05:28:42.608Z,6.91
2023-05-08T05:31:11.065Z,6.88
2023-05-08T05:33:40.775Z,6.87
2023-05-08T05:36:09.232Z,7.17
2023-05-08T05:38:37.436Z,7.07
2023-05-08T05:41:06.100Z,6.90
2023-05-08T05:43:34.334Z,6.87
2023-05-08T05:46:06.231Z,6.83
2023-05-08T05:48:35.071Z,6.65
2023-05-08T05:51:05.339Z,6.73
2023-05-08T05:53:33.464Z,6.91
2023-05-08T05:56:01.801Z,7.20
2023-05-08T05:58:30.657Z,7.60
2023-05-08T06:01:01.087Z,7.27
2023-05-08T06:03:29.304Z,7.03
2023-05-08T06:05:57.471Z,7.36
2023-05-08T06:08:29.537Z,7.23
2023-05-08T06:10:58.819Z,7.40
2023-05-08T06:13:27.716Z,7.76
2023-05-08T06:15:57.611Z,7.92
2023-05-08T06:18:26.258Z,7.62
2023-05-08T06:20:58.916Z,7.71
2023-05-08T06:23:27.886Z,7.74
2023-05-08T06:25:57.357Z,7.79
2023-05-08T06:28:26.226Z,7.88
2023-05-08T06:30:54.665Z,7.78
2023-05-08T06:33:24.711Z,7.43
2023-05-08T06:35:54.355Z,7.73
2023-05-08T06:38:22.506Z,7.44
2023-05-08T06:40:51.201Z,7.57
2023-05-08T06:43:21.106Z,7.65
2023-05-08T06:45:49.094Z,7.75
2023-05-08T06:48:17.243Z,8.07
2023-05-08T06:50:45.476Z,7.73
2023-05-08T06:53:13.481Z,7.98
2023-05-08T06:55:44.483Z,8.34
2023-05-08T06:58:12.682Z,8.08
2023-05-08T07:00:43.402Z,8.43
2023-05-08T07:03:11.478Z,8.23
2023-05-08T07:05:39.803Z,8.47
2023-05-08T07:08:07.821Z,8.58
2023-05-08T07:10:35.899Z,8.78
2023-05-08T07:13:03.966Z,8.93
2023-05-08T07:15:32.807Z,9.20
2023-05-08T07:18:02.537Z,9.21
2023-05-08T07:20:31.127Z,9.13
2023-05-08T07:22:59.123Z,9.13
2023-05-08T07:25:27.272Z,8.91
2023-05-08T07:27:55.228Z,9.34
2023-05-08T07:30:23.449Z,9.24
2023-05-08T07:32:51.585Z,9.13
2023-05-08T07:35:21.313Z,9.54
2023-05-08T07:37:49.463Z,9.54
2023-05-08T07:40:17.728Z,9.36
2023-05-08T07:42:46.417Z,9.66
2023-05-08T07:45:15.159Z,9.75
2023-05-08T07:47:50.972Z,9.62
2023-05-08T07:50:21.304Z,9.67
2023-05-08T07:52:50.516Z,9.30
2023-05-08T07:55:19.617Z,9.80
2023-05-08T07:57:47.763Z,9.75
2023-05-08T08:00:17.071Z,9.60
2023-05-08T08:02:46.060Z,10.05
2023-05-08T08:05:14.592Z,9.83
2023-05-08T08:07:44.217Z,9.70
2023-05-08T08:10:12.615Z,9.84
2023-05-08T08:12:40.687Z,10.01
2023-05-08T08:15:09.654Z,10.06
2023-05-08T08:17:37.807Z,10.73
2023-05-08T08:20:07.266Z,10.50
2023-05-08T08:22:36.616Z,10.42
2023-05-08T08:25:06.554Z,10.27
2023-05-08T08:27:34.572Z,10.32
2023-05-08T08:30:15.977Z,10.50
2023-05-08T08:32:45.856Z,10.82
2023-05-08T08:35:14.759Z,10.56
2023-05-08T08:37:43.737Z,10.64
2023-05-08T08:40:13.630Z,10.33
2023-05-08T08:42:41.968Z,10.72
2023-05-08T08:45:10.396Z,10.87
2023-05-08T08:47:39.889Z,11.00
2023-05-08T08:50:12.850Z,10.82
2023-05-08T08:52:48.300Z,10.84
2023-05-08T08:55:19.456Z,11.00
2023-05-08T08:57:56.648Z,11.00
2023-05-08T09:00:26.060Z,11.25
2023-05-08T09:02:54.648Z,11.74
2023-05-08T09:05:25.055Z,11.65
2023-05-08T09:07:55.932Z,11.69
2023-05-08T09:10:26.548Z,11.12
2023-05-08T09:12:54.649Z,11.38
2023-05-08T09:15:22.987Z,11.94
2023-05-08T09:17:51.122Z,11.77
2023-05-08T09:20:20.231Z,11.91
2023-05-08T09:22:49.078Z,11.81
2023-05-08T09:25:19.140Z,11.56
2023-05-08T09:27:48.583Z,11.70
2023-05-08T09:30:16.744Z,12.02
2023-05-08T09:32:45.579Z,11.92
2023-05-08T09:35:14.338Z,12.08
2023-05-08T09:37:44.185Z,12.05
2023-05-08T09:40:16.967Z,12.01
2023-05-08T09:42:45.256Z,11.98
2023-05-08T09:45:28.286Z,11.65
2023-05-08T09:47:56.559Z,11.55
2023-05-08T09:50:25.725Z,11.65
2023-05-08T09:52:53.919Z,12.04
2023-05-08T09:55:21.980Z,11.67
2023-05-08T09:57:56.453Z,11.40
2023-05-08T10:00:27.350Z,11.61
2023-05-08T10:02:57.159Z,11.84
2023-05-08T10:05:27.814Z,11.98
2023-05-08T10:07:56.166Z,12.37
2023-05-08T10:10:27.133Z,11.86
2023-05-08T10:12:56.282Z,11.82
2023-05-08T10:15:29.461Z,12.25
2023-05-08T10:18:05.313Z,11.79
2023-05-08T10:20:35.148Z,12.27
2023-05-08T10:23:05.349Z,12.54
2023-05-08T10:25:36.450Z,12.61
2023-05-08T10:28:12.580Z,12.44
2023-05-08T10:30:48.763Z,12.45
2023-05-08T10:33:21.263Z,12.72
2023-05-08T10:35:49.973Z,13.03
2023-05-08T10:38:18.606Z,13.27
2023-05-08T10:40:47.275Z,13.29
2023-05-08T10:43:16.458Z,13.36
2023-05-08T10:45:46.344Z,13.44
2023-05-08T10:48:26.059Z,13.39
2023-05-08T10:51:04.473Z,13.27
2023-05-08T10:53:40.174Z,13.33
2023-05-08T10:56:09.593Z,13.10
2023-05-08T10:58:40.397Z,12.97
2023-05-08T11:01:17.710Z,13.46
2023-05-08T11:03:51.624Z,13.11
2023-05-08T11:06:45.514Z,13.39
2023-05-08T11:09:22.068Z,13.44
2023-05-08T11:12:04.318Z,14.19
2023-05-08T11:14:34.641Z,14.71
2023-05-08T11:17:11.266Z,14.29
2023-05-08T11:19:39.870Z,14.57
2023-05-08T11:22:26.124Z,14.41
2023-05-08T11:24:56.955Z,13.93
2023-05-08T11:27:39.181Z,13.78
2023-05-08T11:30:38.036Z,13.62
2023-05-08T11:33:18.410Z,13.41
2023-05-08T11:35:54.899Z,13.79
2023-05-08T11:38:27.874Z,13.79
2023-05-08T11:41:01.169Z,13.82
2023-05-08T11:44:00.562Z,14.36
2023-05-08T11:46:39.341Z,14.05
2023-05-08T11:49:16.835Z,13.68
2023-05-08T11:51:47.353Z,14.03
2023-05-08T11:54:20.571Z,14.00
2023-05-08T11:56:50.479Z,14.00
2023-05-08T11:59:19.138Z,14.12
2023-05-08T12:02:07.044Z,13.88
2023-05-08T12:04:46.907Z,13.93
2023-05-08T12:07:16.143Z,13.56
2023-05-08T12:09:44.299Z,13.89
2023-05-08T12:12:12.291Z,13.92
2023-05-08T12:14:40.359Z,13.65
2023-05-08T12:17:08.402Z,13.80
2023-05-08T12:19:36.484Z,13.60
2023-05-08T12:22:05.995Z,13.73
2023-05-08T12:24:34.320Z,14.06
2023-05-08T12:27:02.411Z,13.95
2023-05-08T12:29:30.393Z,14.08
2023-05-08T12:31:58.626Z,13.89
2023-05-08T12:34:27.516Z,13.84
2023-05-08T12:37:06.170Z,14.03
2023-05-08T12:39:38.615Z,14.43
2023-05-08T12:42:06.997Z,14.75
2023-05-08T12:44:34.995Z,14.83
2023-05-08T12:47:03.208Z,14.59
2023-05-08T12:49:32.574Z,14.76
2023-05-08T12:52:07.060Z,14.85
2023-05-08T12:54:37.290Z,14.48
2023-05-08T12:57:15.598Z,14.79
2023-05-08T12:59:44.964Z,14.63
2023-05-08T13:02:14.812Z,14.75
2023-05-08T13:04:43.164Z,14.85
2023-05-08T13:07:12.727Z,14.99
2023-05-08T13:09:41.106Z,15.14
2023-05-08T13:12:09.590Z,14.67
2023-05-08T13:14:37.654Z,14.32
2023-05-08T13:17:06.565Z,14.31
2023-05-08T13:19:35.135Z,14.16
2023-05-08T13:22:04.010Z,14.03
2023-05-08T13:24:33.449Z,14.35
2023-05-08T13:27:01.905Z,14.48
2023-05-08T13:29:30.056Z,14.50
2023-05-08T13:31:58.563Z,14.41
2023-05-08T13:34:27.032Z,14.79
2023-05-08T13:36:55.584Z,14.32
2023-05-08T13:39:23.628Z,14.47
2023-05-08T13:41:53.061Z,14.50
2023-05-08T13:44:21.162Z,14.52
2023-05-08T13:46:49.748Z,14.73
2023-05-08T13:49:19.336Z,15.02
2023-05-08T13:51:49.426Z,15.52
2023-05-08T13:54:23.035Z,16.29
2023-05-08T13:56:53.986Z,16.44
2023-05-08T13:59:22.165Z,16.15
2023-05-08T14:01:50.411Z,16.43
2023-05-08T14:04:19.234Z,16.42
2023-05-08T14:06:47.310Z,16.46
2023-05-08T14:09:15.408Z,16.43
2023-05-08T14:11:43.465Z,15.89
2023-05-08T14:14:12.914Z,15.41
2023-05-08T14:16:41.126Z,15.43
2023-05-08T14:19:09.256Z,15.31
2023-05-08T14:21:37.631Z,15.16
2023-05-08T14:24:06.573Z,15.02
2023-05-08T14:26:34.593Z,15.22
2023-05-08T14:29:02.756Z,14.96
2023-05-08T14:31:32.461Z,14.79
2023-05-08T14:34:00.648Z,14.72
2023-05-08T14:36:28.716Z,14.49
2023-05-08T14:38:56.804Z,14.55
2023-05-08T14:41:29.049Z,14.99
2023-05-08T14:43:57.316Z,15.02
2023-05-08T14:46:26.148Z,15.08
2023-05-08T14:48:56.979Z,14.71
2023-05-08T14:51:25.402Z,15.24
2023-05-08T14:53:53.726Z,15.04
2023-05-08T14:56:24.610Z,15.10
2023-05-08T14:58:55.293Z,15.14
2023-05-08T15:01:23.791Z,15.10
2023-05-08T15:03:53.561Z,15.53
2023-05-08T15:06:25.470Z,15.60
2023-05-08T15:08:53.510Z,15.83
2023-05-08T15:13:52.419Z,15.10
2023-05-08T15:16:20.524Z,15.08
2023-05-08T15:18:48.563Z,15.55
2023-05-08T15:21:16.886Z,15.57
2023-05-08T15:23:46.229Z,15.71
2023-05-08T15:26:14.211Z,15.89
2023-05-08T15:28:42.298Z,15.50
2023-05-08T15:31:10.452Z,15.95
2023-05-08T15:33:40.847Z,16.16
2023-05-08T15:36:09.275Z,16.45
2023-05-08T15:38:37.308Z,17.15
2023-05-08T15:41:07.575Z,18.03
2023-05-08T15:43:35.918Z,18.04
2023-05-08T15:46:04.497Z,19.06
2023-05-08T15:48:32.613Z,19.50
2023-05-08T15:51:00.626Z,18.97
2023-05-08T15:53:28.770Z,19.01
2023-05-08T15:55:57.378Z,18.29
2023-05-08T15:58:27.716Z,18.32
2023-05-08T16:00:57.006Z,18.63
2023-05-08T16:03:25.413Z,18.52
2023-05-08T16:05:53.492Z,18.96
2023-05-08T16:08:21.552Z,19.24
2023-05-08T16:10:49.655Z,18.77
2023-05-08T16:13:17.771Z,18.26
2023-05-08T16:15:47.220Z,18.40
2023-05-08T16:18:15.425Z,18.12
2023-05-08T16:20:44.167Z,17.92
2023-05-08T16:23:12.178Z,17.42
2023-05-08T16:25:40.207Z,17.76
2023-05-08T16:28:08.264Z,17.96
2023-05-08T16:30:36.310Z,18.39
2023-05-08T16:33:05.976Z,18.60
2023-05-08T16:35:34.166Z,18.65
2023-05-08T16:38:03.055Z,18.42
2023-05-08T16:40:32.681Z,18.89
2023-05-08T16:43:01.110Z,19.33
2023-05-08T16:45:29.418Z,18.92
2023-05-08T16:47:57.906Z,18.72
2023-05-08T16:50:27.923Z,18.92
2023-05-08T16:52:57.201Z,19.16
2023-05-08T16:55:25.694Z,18.89
2023-05-08T16:57:54.266Z,18.73
2023-05-08T17:00:23.610Z,18.33
2023-05-08T17:02:52.660Z,17.73
2023-05-08T17:05:21.437Z,17.79
2023-05-08T17:07:51.151Z,17.82
2023-05-08T17:10:19.609Z,17.35
2023-05-08T17:12:49.089Z,17.41
2023-05-08T17:15:17.387Z,16.79
2023-05-08T17:17:47.659Z,16.72
2023-05-08T17:20:16.937Z,16.46
2023-05-08T17:22:45.069Z,16.10
2023-05-08T17:25:14.494Z,16.21
2023-05-08T17:27:42.553Z,16.08
2023-05-08T17:30:12.546Z,15.66
2023-05-08T17:32:40.919Z,15.52
2023-05-08T17:35:09.860Z,15.43
2023-05-08T17:37:37.920Z,15.35
2023-05-08T17:40:07.058Z,14.78
2023-05-08T17:42:37.291Z,14.91
2023-05-08T17:45:05.914Z,14.81
2023-05-08T17:47:34.303Z,14.56
2023-05-08T17:50:02.301Z,14.53
2023-05-08T17:52:30.367Z,14.33
2023-05-08T17:54:58.513Z,14.36
2023-05-08T17:57:26.517Z,14.32
2023-05-08T17:59:55.962Z,14.28
2023-05-08T18:02:24.116Z,14.27
2023-05-08T18:04:52.218Z,14.24
2023-05-08T18:07:20.326Z,14.08
